Tipton, Oklahoma
Current Conditions -  °F | °C
As of 2:23 AM on Saturday 20 Dec 2014 (Local Time) from KLTS Reporting Station
Overcast Overcast  
Wind Chill: 39°   Ceiling: 2500
Heat Index: 43°   Visibility: 10mi
Dew Point: 43°   Wind: 6mph
Humidity: 100%   Direction: 180°S
Pressure: 30.19"   Gusts: NA
Location:  34.5°N, 99.14°W
Report Text: KLTS 200823Z AUTO 18005KT 10SM OVC025 06/06 A3019 RMK AO2 $
Loading
Personal Weather Stations






























Interactive Weather Map New forecast layout! Learn more

10-Day Weather Forecast

Advertisements
Track Severe Weather on mobile